sensor_id;sensor_type;location;lat;lon;timestamp;P1;durP1;ratioP1;P2;durP2;ratioP2
74541;SDS011;63015;45.378;20.360;2023-07-31T00:00:17;5.47;;;3.40;;
74541;SDS011;63015;45.378;20.360;2023-07-31T00:02:18;6.20;;;3.80;;
74541;SDS011;63015;45.378;20.360;2023-07-31T00:04:18;5.70;;;3.78;;
74541;SDS011;63015;45.378;20.360;2023-07-31T00:06:19;6.55;;;4.55;;
74541;SDS011;63015;45.378;20.360;2023-07-31T00:08:19;7.38;;;4.22;;
74541;SDS011;63015;45.378;20.360;2023-07-31T00:10:20;7.55;;;3.60;;
74541;SDS011;63015;45.378;20.360;2023-07-31T00:12:21;6.72;;;3.70;;
74541;SDS011;63015;45.378;20.360;2023-07-31T00:14:22;6.43;;;3.78;;
74541;SDS011;63015;45.378;20.360;2023-07-31T00:16:23;6.38;;;3.72;;
74541;SDS011;63015;45.378;20.360;2023-07-31T00:18:24;7.70;;;4.60;;
74541;SDS011;63015;45.378;20.360;2023-07-31T00:20:24;9.25;;;3.92;;
74541;SDS011;63015;45.378;20.360;2023-07-31T00:22:25;8.32;;;4.63;;
74541;SDS011;63015;45.378;20.360;2023-07-31T00:24:25;6.68;;;4.22;;
74541;SDS011;63015;45.378;20.360;2023-07-31T00:26:26;6.82;;;4.38;;
74541;SDS011;63015;45.378;20.360;2023-07-31T00:28:27;11.77;;;4.68;;
74541;SDS011;63015;45.378;20.360;2023-07-31T00:30:28;7.20;;;3.90;;
74541;SDS011;63015;45.378;20.360;2023-07-31T00:32:29;7.53;;;4.03;;
74541;SDS011;63015;45.378;20.360;2023-07-31T00:34:30;8.38;;;4.35;;
74541;SDS011;63015;45.378;20.360;2023-07-31T00:36:30;7.50;;;4.40;;
74541;SDS011;63015;45.378;20.360;2023-07-31T00:38:31;7.47;;;4.22;;
74541;SDS011;63015;45.378;20.360;2023-07-31T00:40:36;6.60;;;4.20;;
74541;SDS011;63015;45.378;20.360;2023-07-31T00:42:38;7.82;;;4.40;;
74541;SDS011;63015;45.378;20.360;2023-07-31T00:44:39;9.32;;;4.30;;
74541;SDS011;63015;45.378;20.360;2023-07-31T00:46:39;8.82;;;4.68;;
74541;SDS011;63015;45.378;20.360;2023-07-31T00:48:40;9.63;;;4.35;;
74541;SDS011;63015;45.378;20.360;2023-07-31T00:50:41;8.05;;;4.38;;
74541;SDS011;63015;45.378;20.360;2023-07-31T00:52:42;10.60;;;5.25;;
74541;SDS011;63015;45.378;20.360;2023-07-31T00:54:42;10.02;;;4.90;;
74541;SDS011;63015;45.378;20.360;2023-07-31T00:56:44;9.80;;;5.85;;
74541;SDS011;63015;45.378;20.360;2023-07-31T00:58:46;8.60;;;4.93;;
74541;SDS011;63015;45.378;20.360;2023-07-31T01:00:46;9.00;;;5.03;;
74541;SDS011;63015;45.378;20.360;2023-07-31T01:02:48;8.10;;;5.03;;
74541;SDS011;63015;45.378;20.360;2023-07-31T01:04:49;7.32;;;4.40;;
74541;SDS011;63015;45.378;20.360;2023-07-31T01:11:30;10.18;;;4.47;;
74541;SDS011;63015;45.378;20.360;2023-07-31T01:13:39;8.45;;;4.60;;
74541;SDS011;63015;45.378;20.360;2023-07-31T01:15:39;6.63;;;4.32;;
74541;SDS011;63015;45.378;20.360;2023-07-31T01:17:41;10.23;;;4.88;;
74541;SDS011;63015;45.378;20.360;2023-07-31T01:19:42;8.02;;;4.90;;
74541;SDS011;63015;45.378;20.360;2023-07-31T01:24:05;7.88;;;4.25;;
74541;SDS011;63015;45.378;20.360;2023-07-31T01:26:21;7.40;;;4.55;;
74541;SDS011;63015;45.378;20.360;2023-07-31T01:28:26;8.32;;;4.90;;
74541;SDS011;63015;45.378;20.360;2023-07-31T01:30:48;10.38;;;4.95;;
74541;SDS011;63015;45.378;20.360;2023-07-31T01:32:49;7.35;;;4.45;;
74541;SDS011;63015;45.378;20.360;2023-07-31T01:34:54;9.20;;;4.57;;
74541;SDS011;63015;45.378;20.360;2023-07-31T01:36:57;7.22;;;4.70;;
74541;SDS011;63015;45.378;20.360;2023-07-31T01:39:01;7.28;;;5.05;;
74541;SDS011;63015;45.378;20.360;2023-07-31T01:41:02;8.45;;;4.65;;
74541;SDS011;63015;45.378;20.360;2023-07-31T01:43:03;7.68;;;5.45;;
74541;SDS011;63015;45.378;20.360;2023-07-31T01:45:04;8.18;;;4.47;;
74541;SDS011;63015;45.378;20.360;2023-07-31T01:47:05;10.02;;;5.00;;
74541;SDS011;63015;45.378;20.360;2023-07-31T01:49:06;9.43;;;4.80;;
74541;SDS011;63015;45.378;20.360;2023-07-31T01:51:07;7.07;;;4.57;;
74541;SDS011;63015;45.378;20.360;2023-07-31T01:53:08;10.32;;;5.68;;
74541;SDS011;63015;45.378;20.360;2023-07-31T01:55:08;8.55;;;5.53;;
74541;SDS011;63015;45.378;20.360;2023-07-31T01:57:09;9.52;;;4.88;;
74541;SDS011;63015;45.378;20.360;2023-07-31T01:59:09;8.55;;;5.07;;
74541;SDS011;63015;45.378;20.360;2023-07-31T02:01:10;8.68;;;5.28;;
74541;SDS011;63015;45.378;20.360;2023-07-31T02:03:11;7.97;;;4.88;;
74541;SDS011;63015;45.378;20.360;2023-07-31T02:05:11;8.10;;;5.13;;
74541;SDS011;63015;45.378;20.360;2023-07-31T02:07:12;9.70;;;5.88;;
74541;SDS011;63015;45.378;20.360;2023-07-31T02:09:12;9.10;;;5.30;;
74541;SDS011;63015;45.378;20.360;2023-07-31T02:11:13;15.48;;;5.40;;
74541;SDS011;63015;45.378;20.360;2023-07-31T02:13:13;8.80;;;5.63;;
74541;SDS011;63015;45.378;20.360;2023-07-31T02:15:14;10.70;;;4.85;;
74541;SDS011;63015;45.378;20.360;2023-07-31T02:17:15;8.38;;;4.75;;
74541;SDS011;63015;45.378;20.360;2023-07-31T02:19:15;9.32;;;4.95;;
74541;SDS011;63015;45.378;20.360;2023-07-31T02:21:16;10.93;;;5.35;;
74541;SDS011;63015;45.378;20.360;2023-07-31T02:23:17;8.50;;;4.72;;
74541;SDS011;63015;45.378;20.360;2023-07-31T02:25:20;10.00;;;5.75;;
74541;SDS011;63015;45.378;20.360;2023-07-31T02:27:21;11.50;;;4.60;;
74541;SDS011;63015;45.378;20.360;2023-07-31T02:29:24;8.25;;;4.30;;
74541;SDS011;63015;45.378;20.360;2023-07-31T02:31:24;7.80;;;4.93;;
74541;SDS011;63015;45.378;20.360;2023-07-31T02:33:25;8.65;;;5.68;;
74541;SDS011;63015;45.378;20.360;2023-07-31T02:35:26;10.88;;;4.82;;
74541;SDS011;63015;45.378;20.360;2023-07-31T02:37:26;7.50;;;4.50;;
74541;SDS011;63015;45.378;20.360;2023-07-31T02:39:29;6.80;;;4.75;;
74541;SDS011;63015;45.378;20.360;2023-07-31T02:41:29;8.60;;;4.70;;
74541;SDS011;63015;45.378;20.360;2023-07-31T02:43:30;8.60;;;5.47;;
74541;SDS011;63015;45.378;20.360;2023-07-31T02:45:31;8.07;;;5.53;;
74541;SDS011;63015;45.378;20.360;2023-07-31T02:47:31;8.60;;;4.35;;
74541;SDS011;63015;45.378;20.360;2023-07-31T02:49:32;7.68;;;4.90;;
74541;SDS011;63015;45.378;20.360;2023-07-31T02:51:32;7.70;;;4.88;;
74541;SDS011;63015;45.378;20.360;2023-07-31T02:53:33;9.52;;;5.47;;
74541;SDS011;63015;45.378;20.360;2023-07-31T02:55:33;8.98;;;5.07;;
74541;SDS011;63015;45.378;20.360;2023-07-31T02:57:34;9.02;;;4.28;;
74541;SDS011;63015;45.378;20.360;2023-07-31T02:59:35;7.53;;;4.57;;
74541;SDS011;63015;45.378;20.360;2023-07-31T03:01:35;8.45;;;5.28;;
74541;SDS011;63015;45.378;20.360;2023-07-31T03:03:36;7.55;;;4.78;;
74541;SDS011;63015;45.378;20.360;2023-07-31T03:05:36;10.35;;;5.35;;
74541;SDS011;63015;45.378;20.360;2023-07-31T03:07:37;7.35;;;3.90;;
74541;SDS011;63015;45.378;20.360;2023-07-31T03:09:38;6.40;;;4.30;;
74541;SDS011;63015;45.378;20.360;2023-07-31T03:11:38;9.23;;;4.63;;
74541;SDS011;63015;45.378;20.360;2023-07-31T03:13:39;7.63;;;4.95;;
74541;SDS011;63015;45.378;20.360;2023-07-31T03:15:43;7.70;;;5.20;;
74541;SDS011;63015;45.378;20.360;2023-07-31T03:17:44;7.70;;;4.53;;
74541;SDS011;63015;45.378;20.360;2023-07-31T03:19:44;7.03;;;4.50;;
74541;SDS011;63015;45.378;20.360;2023-07-31T03:21:45;9.02;;;4.60;;
74541;SDS011;63015;45.378;20.360;2023-07-31T03:23:46;7.50;;;4.07;;
74541;SDS011;63015;45.378;20.360;2023-07-31T03:25:56;7.03;;;4.30;;
74541;SDS011;63015;45.378;20.360;2023-07-31T03:30:04;9.25;;;4.75;;
74541;SDS011;63015;45.378;20.360;2023-07-31T03:32:05;11.63;;;4.70;;
74541;SDS011;63015;45.378;20.360;2023-07-31T03:34:06;7.88;;;5.40;;
74541;SDS011;63015;45.378;20.360;2023-07-31T03:36:07;8.55;;;4.55;;
74541;SDS011;63015;45.378;20.360;2023-07-31T03:38:07;8.10;;;4.70;;
74541;SDS011;63015;45.378;20.360;2023-07-31T03:40:08;7.45;;;4.80;;
74541;SDS011;63015;45.378;20.360;2023-07-31T03:42:10;8.57;;;4.57;;
74541;SDS011;63015;45.378;20.360;2023-07-31T03:44:10;7.28;;;4.53;;
74541;SDS011;63015;45.378;20.360;2023-07-31T03:46:11;9.52;;;5.78;;
74541;SDS011;63015;45.378;20.360;2023-07-31T03:48:13;7.32;;;4.78;;
74541;SDS011;63015;45.378;20.360;2023-07-31T03:50:14;7.50;;;4.53;;
74541;SDS011;63015;45.378;20.360;2023-07-31T03:52:15;7.75;;;5.20;;
74541;SDS011;63015;45.378;20.360;2023-07-31T03:54:16;8.00;;;4.68;;
74541;SDS011;63015;45.378;20.360;2023-07-31T03:56:16;8.23;;;4.65;;
74541;SDS011;63015;45.378;20.360;2023-07-31T03:58:17;6.80;;;4.15;;
74541;SDS011;63015;45.378;20.360;2023-07-31T04:00:17;7.43;;;4.80;;
74541;SDS011;63015;45.378;20.360;2023-07-31T04:02:18;8.93;;;4.75;;
74541;SDS011;63015;45.378;20.360;2023-07-31T04:04:19;9.43;;;5.72;;
74541;SDS011;63015;45.378;20.360;2023-07-31T04:06:19;7.20;;;4.70;;
74541;SDS011;63015;45.378;20.360;2023-07-31T04:08:20;7.68;;;4.75;;
74541;SDS011;63015;45.378;20.360;2023-07-31T04:10:21;8.50;;;4.88;;
74541;SDS011;63015;45.378;20.360;2023-07-31T04:12:21;6.72;;;4.40;;
74541;SDS011;63015;45.378;20.360;2023-07-31T04:14:22;8.27;;;4.70;;
74541;SDS011;63015;45.378;20.360;2023-07-31T04:16:23;7.25;;;4.40;;
74541;SDS011;63015;45.378;20.360;2023-07-31T04:18:24;9.77;;;4.40;;
74541;SDS011;63015;45.378;20.360;2023-07-31T04:20:25;6.75;;;3.92;;
74541;SDS011;63015;45.378;20.360;2023-07-31T04:22:26;9.77;;;3.90;;
74541;SDS011;63015;45.378;20.360;2023-07-31T04:24:26;7.78;;;4.18;;
74541;SDS011;63015;45.378;20.360;2023-07-31T04:26:27;8.55;;;4.13;;
74541;SDS011;63015;45.378;20.360;2023-07-31T04:28:27;6.28;;;4.07;;
74541;SDS011;63015;45.378;20.360;2023-07-31T04:30:28;8.13;;;3.80;;
74541;SDS011;63015;45.378;20.360;2023-07-31T04:32:28;11.30;;;4.40;;
74541;SDS011;63015;45.378;20.360;2023-07-31T04:34:29;9.98;;;4.07;;
74541;SDS011;63015;45.378;20.360;2023-07-31T04:36:30;7.00;;;3.40;;
74541;SDS011;63015;45.378;20.360;2023-07-31T04:38:31;7.03;;;3.42;;
74541;SDS011;63015;45.378;20.360;2023-07-31T04:40:31;5.85;;;3.47;;
74541;SDS011;63015;45.378;20.360;2023-07-31T04:42:32;6.95;;;3.63;;
74541;SDS011;63015;45.378;20.360;2023-07-31T04:44:32;7.30;;;3.72;;
74541;SDS011;63015;45.378;20.360;2023-07-31T04:46:33;5.30;;;3.58;;
74541;SDS011;63015;45.378;20.360;2023-07-31T04:48:33;6.38;;;3.50;;
74541;SDS011;63015;45.378;20.360;2023-07-31T04:50:34;6.18;;;3.70;;
74541;SDS011;63015;45.378;20.360;2023-07-31T04:52:34;6.28;;;3.58;;
74541;SDS011;63015;45.378;20.360;2023-07-31T04:54:35;6.32;;;3.70;;
74541;SDS011;63015;45.378;20.360;2023-07-31T04:56:36;5.53;;;3.28;;
74541;SDS011;63015;45.378;20.360;2023-07-31T04:58:36;6.43;;;3.60;;
74541;SDS011;63015;45.378;20.360;2023-07-31T05:00:37;5.15;;;3.20;;
74541;SDS011;63015;45.378;20.360;2023-07-31T05:02:37;6.35;;;3.30;;
74541;SDS011;63015;45.378;20.360;2023-07-31T05:04:38;6.05;;;3.72;;
74541;SDS011;63015;45.378;20.360;2023-07-31T05:06:39;6.57;;;3.55;;
74541;SDS011;63015;45.378;20.360;2023-07-31T05:08:40;6.45;;;3.47;;
74541;SDS011;63015;45.378;20.360;2023-07-31T05:10:40;7.85;;;3.40;;
74541;SDS011;63015;45.378;20.360;2023-07-31T05:12:41;5.05;;;3.33;;
74541;SDS011;63015;45.378;20.360;2023-07-31T05:14:42;6.63;;;3.63;;
74541;SDS011;63015;45.378;20.360;2023-07-31T05:16:42;7.70;;;4.32;;
74541;SDS011;63015;45.378;20.360;2023-07-31T05:18:43;9.55;;;5.03;;
74541;SDS011;63015;45.378;20.360;2023-07-31T05:20:43;10.63;;;6.18;;
74541;SDS011;63015;45.378;20.360;2023-07-31T05:22:44;9.52;;;6.45;;
74541;SDS011;63015;45.378;20.360;2023-07-31T05:24:44;11.25;;;6.65;;
74541;SDS011;63015;45.378;20.360;2023-07-31T05:26:45;9.95;;;6.32;;
74541;SDS011;63015;45.378;20.360;2023-07-31T05:28:46;10.00;;;7.22;;
74541;SDS011;63015;45.378;20.360;2023-07-31T05:30:46;11.40;;;6.57;;
74541;SDS011;63015;45.378;20.360;2023-07-31T05:32:47;9.00;;;5.93;;
74541;SDS011;63015;45.378;20.360;2023-07-31T05:34:47;8.60;;;5.40;;
74541;SDS011;63015;45.378;20.360;2023-07-31T05:36:52;8.18;;;5.30;;
74541;SDS011;63015;45.378;20.360;2023-07-31T05:38:52;11.52;;;5.50;;
74541;SDS011;63015;45.378;20.360;2023-07-31T05:40:53;9.13;;;4.88;;
74541;SDS011;63015;45.378;20.360;2023-07-31T05:42:53;6.78;;;4.43;;
74541;SDS011;63015;45.378;20.360;2023-07-31T05:44:54;9.25;;;4.80;;
74541;SDS011;63015;45.378;20.360;2023-07-31T05:46:54;8.38;;;5.13;;
74541;SDS011;63015;45.378;20.360;2023-07-31T05:48:58;7.80;;;4.43;;
74541;SDS011;63015;45.378;20.360;2023-07-31T05:51:00;7.78;;;4.78;;
74541;SDS011;63015;45.378;20.360;2023-07-31T05:53:01;7.13;;;3.83;;
74541;SDS011;63015;45.378;20.360;2023-07-31T05:55:02;6.28;;;3.70;;
74541;SDS011;63015;45.378;20.360;2023-07-31T05:57:03;8.05;;;3.50;;
74541;SDS011;63015;45.378;20.360;2023-07-31T05:59:04;6.10;;;3.20;;
74541;SDS011;63015;45.378;20.360;2023-07-31T06:01:05;5.60;;;3.00;;
74541;SDS011;63015;45.378;20.360;2023-07-31T06:03:05;6.28;;;2.72;;
74541;SDS011;63015;45.378;20.360;2023-07-31T06:05:06;5.70;;;4.05;;
74541;SDS011;63015;45.378;20.360;2023-07-31T06:07:07;6.22;;;2.70;;
74541;SDS011;63015;45.378;20.360;2023-07-31T06:09:07;7.95;;;3.10;;
74541;SDS011;63015;45.378;20.360;2023-07-31T06:11:08;5.13;;;2.70;;
74541;SDS011;63015;45.378;20.360;2023-07-31T06:13:09;5.15;;;2.90;;
74541;SDS011;63015;45.378;20.360;2023-07-31T06:15:10;5.65;;;2.67;;
74541;SDS011;63015;45.378;20.360;2023-07-31T06:17:11;4.35;;;2.67;;
74541;SDS011;63015;45.378;20.360;2023-07-31T06:19:11;4.70;;;2.75;;
74541;SDS011;63015;45.378;20.360;2023-07-31T06:21:12;6.05;;;2.63;;
74541;SDS011;63015;45.378;20.360;2023-07-31T06:23:13;6.15;;;3.20;;
74541;SDS011;63015;45.378;20.360;2023-07-31T06:25:14;5.88;;;2.55;;
74541;SDS011;63015;45.378;20.360;2023-07-31T06:27:17;4.25;;;2.30;;
74541;SDS011;63015;45.378;20.360;2023-07-31T06:29:17;6.13;;;2.50;;
74541;SDS011;63015;45.378;20.360;2023-07-31T06:31:18;4.25;;;2.22;;
74541;SDS011;63015;45.378;20.360;2023-07-31T06:33:22;5.03;;;2.45;;
74541;SDS011;63015;45.378;20.360;2023-07-31T06:35:23;5.97;;;2.50;;
74541;SDS011;63015;45.378;20.360;2023-07-31T06:37:24;6.68;;;2.75;;
74541;SDS011;63015;45.378;20.360;2023-07-31T06:39:24;3.90;;;2.00;;
74541;SDS011;63015;45.378;20.360;2023-07-31T06:41:25;5.65;;;3.53;;
74541;SDS011;63015;45.378;20.360;2023-07-31T06:43:27;5.15;;;2.40;;
74541;SDS011;63015;45.378;20.360;2023-07-31T06:45:28;4.80;;;3.55;;
74541;SDS011;63015;45.378;20.360;2023-07-31T06:47:28;4.22;;;2.42;;
74541;SDS011;63015;45.378;20.360;2023-07-31T06:49:29;6.03;;;2.45;;
74541;SDS011;63015;45.378;20.360;2023-07-31T06:51:29;5.25;;;2.65;;
74541;SDS011;63015;45.378;20.360;2023-07-31T06:53:31;4.63;;;2.22;;
74541;SDS011;63015;45.378;20.360;2023-07-31T06:55:32;3.72;;;2.20;;
74541;SDS011;63015;45.378;20.360;2023-07-31T06:57:32;4.15;;;2.58;;
74541;SDS011;63015;45.378;20.360;2023-07-31T06:59:34;4.55;;;2.28;;
74541;SDS011;63015;45.378;20.360;2023-07-31T07:01:34;5.75;;;2.42;;
74541;SDS011;63015;45.378;20.360;2023-07-31T07:03:35;3.60;;;1.88;;
74541;SDS011;63015;45.378;20.360;2023-07-31T07:05:35;5.95;;;2.20;;
74541;SDS011;63015;45.378;20.360;2023-07-31T07:07:36;4.30;;;2.13;;
74541;SDS011;63015;45.378;20.360;2023-07-31T07:09:37;4.22;;;2.17;;
74541;SDS011;63015;45.378;20.360;2023-07-31T07:11:37;4.18;;;2.03;;
74541;SDS011;63015;45.378;20.360;2023-07-31T07:13:38;3.92;;;2.00;;
74541;SDS011;63015;45.378;20.360;2023-07-31T07:15:38;4.55;;;2.28;;
74541;SDS011;63015;45.378;20.360;2023-07-31T07:17:39;4.30;;;2.10;;
74541;SDS011;63015;45.378;20.360;2023-07-31T07:19:40;5.28;;;2.38;;
74541;SDS011;63015;45.378;20.360;2023-07-31T07:21:42;5.00;;;2.20;;
74541;SDS011;63015;45.378;20.360;2023-07-31T07:23:42;3.78;;;1.92;;
74541;SDS011;63015;45.378;20.360;2023-07-31T07:25:43;5.18;;;3.05;;
74541;SDS011;63015;45.378;20.360;2023-07-31T07:27:45;3.78;;;2.28;;
74541;SDS011;63015;45.378;20.360;2023-07-31T07:29:46;4.65;;;2.03;;
74541;SDS011;63015;45.378;20.360;2023-07-31T07:31:47;4.35;;;2.10;;
74541;SDS011;63015;45.378;20.360;2023-07-31T07:33:47;5.15;;;2.25;;
74541;SDS011;63015;45.378;20.360;2023-07-31T07:35:48;3.28;;;1.83;;
74541;SDS011;63015;45.378;20.360;2023-07-31T07:37:49;4.20;;;1.90;;
74541;SDS011;63015;45.378;20.360;2023-07-31T07:39:52;5.15;;;2.55;;
74541;SDS011;63015;45.378;20.360;2023-07-31T07:41:52;5.75;;;2.67;;
74541;SDS011;63015;45.378;20.360;2023-07-31T07:43:54;3.80;;;1.90;;
74541;SDS011;63015;45.378;20.360;2023-07-31T07:45:54;3.88;;;2.00;;
74541;SDS011;63015;45.378;20.360;2023-07-31T07:47:55;3.67;;;2.10;;
74541;SDS011;63015;45.378;20.360;2023-07-31T07:49:55;5.13;;;1.95;;
74541;SDS011;63015;45.378;20.360;2023-07-31T07:51:56;5.30;;;1.92;;
74541;SDS011;63015;45.378;20.360;2023-07-31T07:53:57;3.20;;;1.60;;
74541;SDS011;63015;45.378;20.360;2023-07-31T07:55:58;3.03;;;1.50;;
74541;SDS011;63015;45.378;20.360;2023-07-31T07:57:59;4.40;;;1.73;;
74541;SDS011;63015;45.378;20.360;2023-07-31T07:59:59;4.03;;;1.90;;
74541;SDS011;63015;45.378;20.360;2023-07-31T08:02:00;4.15;;;1.67;;
74541;SDS011;63015;45.378;20.360;2023-07-31T08:04:01;3.95;;;2.42;;
74541;SDS011;63015;45.378;20.360;2023-07-31T08:06:01;4.80;;;1.38;;
74541;SDS011;63015;45.378;20.360;2023-07-31T08:08:02;3.67;;;1.70;;
74541;SDS011;63015;45.378;20.360;2023-07-31T08:10:03;3.03;;;1.60;;
74541;SDS011;63015;45.378;20.360;2023-07-31T08:12:04;3.92;;;1.65;;
74541;SDS011;63015;45.378;20.360;2023-07-31T08:14:05;3.00;;;1.70;;
74541;SDS011;63015;45.378;20.360;2023-07-31T08:16:06;5.90;;;1.48;;
74541;SDS011;63015;45.378;20.360;2023-07-31T08:18:06;3.42;;;1.38;;
74541;SDS011;63015;45.378;20.360;2023-07-31T08:20:07;3.53;;;1.40;;
74541;SDS011;63015;45.378;20.360;2023-07-31T08:22:08;4.22;;;1.60;;
74541;SDS011;63015;45.378;20.360;2023-07-31T08:24:09;3.95;;;1.73;;
74541;SDS011;63015;45.378;20.360;2023-07-31T08:26:16;6.22;;;2.33;;
74541;SDS011;63015;45.378;20.360;2023-07-31T08:28:19;4.30;;;1.38;;
74541;SDS011;63015;45.378;20.360;2023-07-31T08:30:19;4.88;;;1.33;;
74541;SDS011;63015;45.378;20.360;2023-07-31T08:32:20;2.63;;;1.02;;
74541;SDS011;63015;45.378;20.360;2023-07-31T08:34:21;3.75;;;1.40;;
74541;SDS011;63015;45.378;20.360;2023-07-31T08:36:21;4.65;;;2.15;;
74541;SDS011;63015;45.378;20.360;2023-07-31T08:38:22;3.33;;;1.98;;
74541;SDS011;63015;45.378;20.360;2023-07-31T08:40:25;2.92;;;1.20;;
74541;SDS011;63015;45.378;20.360;2023-07-31T08:42:27;3.53;;;1.30;;
74541;SDS011;63015;45.378;20.360;2023-07-31T08:44:27;3.00;;;1.15;;
74541;SDS011;63015;45.378;20.360;2023-07-31T08:46:31;3.30;;;1.20;;
74541;SDS011;63015;45.378;20.360;2023-07-31T08:48:32;5.10;;;1.27;;
74541;SDS011;63015;45.378;20.360;2023-07-31T08:50:34;4.20;;;1.20;;
74541;SDS011;63015;45.378;20.360;2023-07-31T08:52:36;3.15;;;1.83;;
74541;SDS011;63015;45.378;20.360;2023-07-31T08:54:36;3.25;;;1.35;;
74541;SDS011;63015;45.378;20.360;2023-07-31T08:56:37;4.00;;;1.40;;
74541;SDS011;63015;45.378;20.360;2023-07-31T08:58:39;4.03;;;1.50;;
74541;SDS011;63015;45.378;20.360;2023-07-31T09:00:40;3.75;;;1.45;;
74541;SDS011;63015;45.378;20.360;2023-07-31T09:02:45;3.88;;;1.45;;
74541;SDS011;63015;45.378;20.360;2023-07-31T09:04:46;3.53;;;1.23;;
74541;SDS011;63015;45.378;20.360;2023-07-31T09:06:47;5.25;;;1.30;;
74541;SDS011;63015;45.378;20.360;2023-07-31T09:08:48;4.28;;;1.88;;
74541;SDS011;63015;45.378;20.360;2023-07-31T09:10:50;5.43;;;1.13;;
74541;SDS011;63015;45.378;20.360;2023-07-31T09:12:50;4.43;;;2.10;;
74541;SDS011;63015;45.378;20.360;2023-07-31T09:14:52;4.55;;;1.80;;
74541;SDS011;63015;45.378;20.360;2023-07-31T09:16:53;3.92;;;1.50;;
74541;SDS011;63015;45.378;20.360;2023-07-31T09:18:56;3.65;;;1.13;;
74541;SDS011;63015;45.378;20.360;2023-07-31T09:21:02;3.70;;;1.23;;
74541;SDS011;63015;45.378;20.360;2023-07-31T09:23:08;4.82;;;1.80;;
74541;SDS011;63015;45.378;20.360;2023-07-31T09:25:16;3.88;;;1.42;;
74541;SDS011;63015;45.378;20.360;2023-07-31T09:27:18;3.92;;;1.30;;
74541;SDS011;63015;45.378;20.360;2023-07-31T09:29:19;3.03;;;1.23;;
74541;SDS011;63015;45.378;20.360;2023-07-31T09:31:42;5.07;;;1.17;;
74541;SDS011;63015;45.378;20.360;2023-07-31T09:33:54;5.45;;;1.10;;
74541;SDS011;63015;45.378;20.360;2023-07-31T09:35:55;3.45;;;1.13;;
74541;SDS011;63015;45.378;20.360;2023-07-31T09:38:00;3.35;;;1.50;;
74541;SDS011;63015;45.378;20.360;2023-07-31T09:40:07;4.10;;;1.20;;
74541;SDS011;63015;45.378;20.360;2023-07-31T09:42:08;3.05;;;1.23;;
74541;SDS011;63015;45.378;20.360;2023-07-31T09:44:08;3.47;;;1.05;;
74541;SDS011;63015;45.378;20.360;2023-07-31T09:46:13;4.18;;;1.70;;
74541;SDS011;63015;45.378;20.360;2023-07-31T09:48:15;3.13;;;1.20;;
74541;SDS011;63015;45.378;20.360;2023-07-31T09:50:17;4.97;;;1.02;;
74541;SDS011;63015;45.378;20.360;2023-07-31T09:52:21;3.47;;;1.10;;
74541;SDS011;63015;45.378;20.360;2023-07-31T09:54:22;3.72;;;1.13;;
74541;SDS011;63015;45.378;20.360;2023-07-31T09:56:23;4.25;;;1.23;;
74541;SDS011;63015;45.378;20.360;2023-07-31T09:58:24;2.67;;;1.00;;
74541;SDS011;63015;45.378;20.360;2023-07-31T10:00:28;4.38;;;1.33;;
74541;SDS011;63015;45.378;20.360;2023-07-31T10:02:30;3.05;;;1.13;;
74541;SDS011;63015;45.378;20.360;2023-07-31T10:04:32;3.15;;;1.98;;
74541;SDS011;63015;45.378;20.360;2023-07-31T10:06:34;3.03;;;1.10;;
74541;SDS011;63015;45.378;20.360;2023-07-31T10:08:35;3.22;;;1.05;;
74541;SDS011;63015;45.378;20.360;2023-07-31T10:10:37;4.05;;;1.13;;
74541;SDS011;63015;45.378;20.360;2023-07-31T10:12:43;3.78;;;1.15;;
74541;SDS011;63015;45.378;20.360;2023-07-31T10:14:46;5.43;;;1.17;;
74541;SDS011;63015;45.378;20.360;2023-07-31T10:16:47;3.35;;;1.10;;
74541;SDS011;63015;45.378;20.360;2023-07-31T10:18:49;4.15;;;1.00;;
74541;SDS011;63015;45.378;20.360;2023-07-31T10:20:52;4.85;;;1.00;;
74541;SDS011;63015;45.378;20.360;2023-07-31T10:22:55;3.42;;;0.98;;
74541;SDS011;63015;45.378;20.360;2023-07-31T10:24:57;5.38;;;1.25;;
74541;SDS011;63015;45.378;20.360;2023-07-31T10:27:00;3.42;;;1.15;;
74541;SDS011;63015;45.378;20.360;2023-07-31T10:29:03;3.05;;;1.08;;
74541;SDS011;63015;45.378;20.360;2023-07-31T10:31:06;3.50;;;1.10;;
74541;SDS011;63015;45.378;20.360;2023-07-31T10:33:07;5.32;;;1.23;;
74541;SDS011;63015;45.378;20.360;2023-07-31T10:35:08;3.63;;;1.30;;
74541;SDS011;63015;45.378;20.360;2023-07-31T10:37:19;4.70;;;2.03;;
74541;SDS011;63015;45.378;20.360;2023-07-31T10:39:35;5.50;;;1.25;;
74541;SDS011;63015;45.378;20.360;2023-07-31T10:41:38;5.38;;;1.67;;
74541;SDS011;63015;45.378;20.360;2023-07-31T10:43:38;2.85;;;1.00;;
74541;SDS011;63015;45.378;20.360;2023-07-31T10:45:41;4.47;;;1.30;;
74541;SDS011;63015;45.378;20.360;2023-07-31T10:47:44;3.63;;;1.80;;
74541;SDS011;63015;45.378;20.360;2023-07-31T10:49:45;4.88;;;1.80;;
74541;SDS011;63015;45.378;20.360;2023-07-31T10:51:47;7.28;;;1.15;;
74541;SDS011;63015;45.378;20.360;2023-07-31T10:53:48;6.80;;;1.23;;
74541;SDS011;63015;45.378;20.360;2023-07-31T10:55:48;4.85;;;1.20;;
74541;SDS011;63015;45.378;20.360;2023-07-31T10:57:51;6.60;;;1.30;;
74541;SDS011;63015;45.378;20.360;2023-07-31T10:59:53;4.97;;;1.10;;
74541;SDS011;63015;45.378;20.360;2023-07-31T11:02:24;3.28;;;1.00;;
74541;SDS011;63015;45.378;20.360;2023-07-31T11:04:26;3.85;;;1.30;;
74541;SDS011;63015;45.378;20.360;2023-07-31T11:06:29;5.45;;;1.27;;
74541;SDS011;63015;45.378;20.360;2023-07-31T11:08:30;3.92;;;1.10;;
74541;SDS011;63015;45.378;20.360;2023-07-31T11:12:33;4.70;;;1.20;;
74541;SDS011;63015;45.378;20.360;2023-07-31T11:14:34;3.60;;;1.15;;
74541;SDS011;63015;45.378;20.360;2023-07-31T11:16:34;3.40;;;1.60;;
74541;SDS011;63015;45.378;20.360;2023-07-31T11:18:35;6.65;;;1.40;;
74541;SDS011;63015;45.378;20.360;2023-07-31T11:20:36;4.57;;;1.40;;
74541;SDS011;63015;45.378;20.360;2023-07-31T11:22:38;3.92;;;1.65;;
74541;SDS011;63015;45.378;20.360;2023-07-31T11:24:39;5.00;;;1.60;;
74541;SDS011;63015;45.378;20.360;2023-07-31T11:26:47;5.47;;;1.15;;
74541;SDS011;63015;45.378;20.360;2023-07-31T11:28:52;2.58;;;1.00;;
74541;SDS011;63015;45.378;20.360;2023-07-31T11:30:55;4.18;;;1.30;;
74541;SDS011;63015;45.378;20.360;2023-07-31T11:32:56;4.03;;;1.13;;
74541;SDS011;63015;45.378;20.360;2023-07-31T11:34:56;4.25;;;1.40;;
74541;SDS011;63015;45.378;20.360;2023-07-31T11:36:57;2.85;;;1.02;;
74541;SDS011;63015;45.378;20.360;2023-07-31T11:39:05;4.00;;;1.08;;
74541;SDS011;63015;45.378;20.360;2023-07-31T11:41:08;3.35;;;1.05;;
74541;SDS011;63015;45.378;20.360;2023-07-31T11:43:08;3.42;;;1.00;;
74541;SDS011;63015;45.378;20.360;2023-07-31T11:45:09;5.97;;;1.40;;
74541;SDS011;63015;45.378;20.360;2023-07-31T11:47:10;3.97;;;0.80;;
74541;SDS011;63015;45.378;20.360;2023-07-31T11:49:11;5.22;;;1.10;;
74541;SDS011;63015;45.378;20.360;2023-07-31T11:51:12;5.70;;;1.23;;
74541;SDS011;63015;45.378;20.360;2023-07-31T11:53:14;4.40;;;1.75;;
74541;SDS011;63015;45.378;20.360;2023-07-31T11:57:18;4.22;;;1.10;;
74541;SDS011;63015;45.378;20.360;2023-07-31T11:59:20;5.32;;;1.30;;
74541;SDS011;63015;45.378;20.360;2023-07-31T12:01:21;3.67;;;1.45;;
74541;SDS011;63015;45.378;20.360;2023-07-31T12:03:22;6.80;;;1.13;;
74541;SDS011;63015;45.378;20.360;2023-07-31T12:05:23;7.20;;;1.27;;
74541;SDS011;63015;45.378;20.360;2023-07-31T12:07:24;3.50;;;1.10;;
74541;SDS011;63015;45.378;20.360;2023-07-31T12:09:24;4.43;;;1.00;;
74541;SDS011;63015;45.378;20.360;2023-07-31T12:11:26;3.92;;;1.73;;
74541;SDS011;63015;45.378;20.360;2023-07-31T12:13:27;4.88;;;1.10;;